sensor_id;sensor_type;location;lat;lon;timestamp;pressure;altitude;pressure_sealevel;temperature;humidity
7109;BME280;29079;41.930;25.558;2022-12-24T00:00:33;99541.28;;;2.09;96.67
7109;BME280;29079;41.930;25.558;2022-12-24T00:03:04;99543.78;;;2.12;96.57
7109;BME280;29079;41.930;25.558;2022-12-24T00:05:36;99542.47;;;2.03;97.10
7109;BME280;29079;41.930;25.558;2022-12-24T00:08:06;99542.41;;;2.05;97.17
7109;BME280;29079;41.930;25.558;2022-12-24T00:10:36;99548.03;;;1.97;97.10
7109;BME280;29079;41.930;25.558;2022-12-24T00:13:08;99552.38;;;1.98;97.09
7109;BME280;29079;41.930;25.558;2022-12-24T00:15:38;99545.31;;;1.99;96.63
7109;BME280;29079;41.930;25.558;2022-12-24T00:18:11;99553.44;;;1.78;96.99
7109;BME280;29079;41.930;25.558;2022-12-24T00:20:44;99554.91;;;1.84;97.56
7109;BME280;29079;41.930;25.558;2022-12-24T00:23:17;99548.63;;;1.86;96.81
7109;BME280;29079;41.930;25.558;2022-12-24T00:25:47;99545.13;;;1.86;96.63
7109;BME280;29079;41.930;25.558;2022-12-24T00:28:19;99541.28;;;1.76;96.81
7109;BME280;29079;41.930;25.558;2022-12-24T00:30:50;99536.00;;;1.76;97.08
7109;BME280;29079;41.930;25.558;2022-12-24T00:33:19;99549.25;;;1.74;96.81
7109;BME280;29079;41.930;25.558;2022-12-24T00:35:52;99543.47;;;1.67;97.45
7109;BME280;29079;41.930;25.558;2022-12-24T00:38:22;99544.16;;;1.71;96.99
7109;BME280;29079;41.930;25.558;2022-12-24T00:40:57;99548.41;;;1.73;96.74
7109;BME280;29079;41.930;25.558;2022-12-24T00:43:29;99547.69;;;1.70;96.99
7109;BME280;29079;41.930;25.558;2022-12-24T00:45:59;99549.59;;;1.50;97.55
7109;BME280;29079;41.930;25.558;2022-12-24T00:48:29;99555.31;;;1.59;97.56
7109;BME280;29079;41.930;25.558;2022-12-24T00:50:59;99543.94;;;1.58;97.21
7109;BME280;29079;41.930;25.558;2022-12-24T00:53:29;99549.13;;;1.60;96.89
7109;BME280;29079;41.930;25.558;2022-12-24T00:55:59;99536.81;;;1.60;96.99
7109;BME280;29079;41.930;25.558;2022-12-24T00:58:30;99540.94;;;1.66;97.23
7109;BME280;29079;41.930;25.558;2022-12-24T01:01:00;99540.63;;;1.54;97.44
7109;BME280;29079;41.930;25.558;2022-12-24T01:03:30;99535.97;;;1.60;97.18
7109;BME280;29079;41.930;25.558;2022-12-24T01:06:07;99531.66;;;1.59;96.55
7109;BME280;29079;41.930;25.558;2022-12-24T01:08:37;99513.72;;;1.32;97.63
7109;BME280;29079;41.930;25.558;2022-12-24T01:11:08;99516.81;;;1.40;97.19
7109;BME280;29079;41.930;25.558;2022-12-24T01:13:40;99542.78;;;1.46;97.56
7109;BME280;29079;41.930;25.558;2022-12-24T01:16:14;99542.94;;;1.26;98.11
7109;BME280;29079;41.930;25.558;2022-12-24T01:18:45;99540.41;;;1.42;97.24
7109;BME280;29079;41.930;25.558;2022-12-24T01:21:15;99534.38;;;1.39;97.36
7109;BME280;29079;41.930;25.558;2022-12-24T01:23:45;99533.06;;;1.31;97.68
7109;BME280;29079;41.930;25.558;2022-12-24T01:26:15;99540.63;;;1.37;97.64
7109;BME280;29079;41.930;25.558;2022-12-24T01:28:46;99529.41;;;1.33;97.50
7109;BME280;29079;41.930;25.558;2022-12-24T01:31:18;99533.75;;;1.34;97.49
7109;BME280;29079;41.930;25.558;2022-12-24T01:33:48;99533.06;;;1.31;97.69
7109;BME280;29079;41.930;25.558;2022-12-24T01:36:18;99526.50;;;1.39;97.25
7109;BME280;29079;41.930;25.558;2022-12-24T01:38:48;99514.66;;;1.31;97.03
7109;BME280;29079;41.930;25.558;2022-12-24T01:41:20;99509.44;;;1.29;97.49
7109;BME280;29079;41.930;25.558;2022-12-24T01:44:22;99508.00;;;1.24;97.61
7109;BME280;29079;41.930;25.558;2022-12-24T01:47:07;99517.13;;;1.34;97.27
7109;BME280;29079;41.930;25.558;2022-12-24T01:49:40;99486.97;;;1.06;98.04
7109;BME280;29079;41.930;25.558;2022-12-24T01:52:13;99503.34;;;1.29;97.81
7109;BME280;29079;41.930;25.558;2022-12-24T01:54:47;99509.00;;;1.38;96.64
7109;BME280;29079;41.930;25.558;2022-12-24T01:57:21;99504.66;;;1.37;96.88
7109;BME280;29079;41.930;25.558;2022-12-24T01:59:56;99488.41;;;1.29;96.73
7109;BME280;29079;41.930;25.558;2022-12-24T02:02:27;99481.56;;;1.09;97.74
7109;BME280;29079;41.930;25.558;2022-12-24T02:05:02;99502.97;;;1.19;98.11
7109;BME280;29079;41.930;25.558;2022-12-24T02:07:34;99500.56;;;1.14;98.27
7109;BME280;29079;41.930;25.558;2022-12-24T02:10:08;99500.97;;;1.07;97.89
7109;BME280;29079;41.930;25.558;2022-12-24T02:12:39;99499.50;;;1.18;97.67
7109;BME280;29079;41.930;25.558;2022-12-24T02:15:13;99505.44;;;1.04;97.82
7109;BME280;29079;41.930;25.558;2022-12-24T02:17:51;99498.09;;;1.11;98.06
7109;BME280;29079;41.930;25.558;2022-12-24T02:20:49;99505.91;;;1.13;97.79
7109;BME280;29079;41.930;25.558;2022-12-24T02:23:51;99507.78;;;1.11;98.35
7109;BME280;29079;41.930;25.558;2022-12-24T02:26:33;99502.88;;;1.20;97.10
7109;BME280;29079;41.930;25.558;2022-12-24T02:29:25;99503.28;;;1.13;97.79
7109;BME280;29079;41.930;25.558;2022-12-24T02:32:02;99495.16;;;1.00;97.50
7109;BME280;29079;41.930;25.558;2022-12-24T02:34:37;99504.59;;;1.04;97.26
7109;BME280;29079;41.930;25.558;2022-12-24T02:37:12;99505.22;;;1.09;97.51
7109;BME280;29079;41.930;25.558;2022-12-24T02:39:46;99503.28;;;1.13;96.85
7109;BME280;29079;41.930;25.558;2022-12-24T02:42:24;99513.09;;;0.92;97.65
7109;BME280;29079;41.930;25.558;2022-12-24T02:45:01;99520.34;;;0.86;98.08
7109;BME280;29079;41.930;25.558;2022-12-24T02:47:33;99518.47;;;0.89;97.81
7109;BME280;29079;41.930;25.558;2022-12-24T02:50:07;99515.41;;;0.80;98.45
7109;BME280;29079;41.930;25.558;2022-12-24T02:52:39;99510.22;;;0.96;98.45
7109;BME280;29079;41.930;25.558;2022-12-24T02:55:11;99506.38;;;1.03;97.96
7109;BME280;29079;41.930;25.558;2022-12-24T02:57:45;99514.69;;;0.94;97.96
7109;BME280;29079;41.930;25.558;2022-12-24T03:00:18;99514.50;;;0.99;97.94
7109;BME280;29079;41.930;25.558;2022-12-24T03:03:06;99515.41;;;0.80;97.70
7109;BME280;29079;41.930;25.558;2022-12-24T03:05:42;99516.63;;;0.91;97.71
7109;BME280;29079;41.930;25.558;2022-12-24T03:08:20;99521.97;;;0.89;97.52
7109;BME280;29079;41.930;25.558;2022-12-24T03:11:01;99523.88;;;0.85;97.58
7109;BME280;29079;41.930;25.558;2022-12-24T03:13:35;99522.19;;;0.84;97.25
7109;BME280;29079;41.930;25.558;2022-12-24T03:16:07;99520.94;;;0.74;97.47
7109;BME280;29079;41.930;25.558;2022-12-24T03:18:43;99519.31;;;0.72;98.07
7109;BME280;29079;41.930;25.558;2022-12-24T03:21:17;99522.84;;;0.71;98.20
7109;BME280;29079;41.930;25.558;2022-12-24T03:23:49;99525.38;;;0.55;98.33
7109;BME280;29079;41.930;25.558;2022-12-24T03:26:19;99524.91;;;0.64;98.07
7109;BME280;29079;41.930;25.558;2022-12-24T03:28:49;99508.16;;;0.66;98.35
7109;BME280;29079;41.930;25.558;2022-12-24T03:31:19;99532.53;;;0.70;98.30
7109;BME280;29079;41.930;25.558;2022-12-24T03:33:54;99517.69;;;0.69;97.49
7109;BME280;29079;41.930;25.558;2022-12-24T03:36:24;99529.47;;;0.60;98.47
7109;BME280;29079;41.930;25.558;2022-12-24T03:38:58;99531.47;;;0.55;98.33
7109;BME280;29079;41.930;25.558;2022-12-24T03:41:27;99529.19;;;0.66;98.94
7109;BME280;29079;41.930;25.558;2022-12-24T03:43:58;99525.63;;;0.67;97.79
7109;BME280;29079;41.930;25.558;2022-12-24T03:46:27;99521.00;;;0.73;98.59
7109;BME280;29079;41.930;25.558;2022-12-24T03:48:59;99524.41;;;0.75;97.83
7109;BME280;29079;41.930;25.558;2022-12-24T03:51:28;99526.94;;;0.59;97.90
7109;BME280;29079;41.930;25.558;2022-12-24T03:54:00;99532.03;;;0.62;98.15
7109;BME280;29079;41.930;25.558;2022-12-24T03:56:30;99533.31;;;0.53;98.77
7109;BME280;29079;41.930;25.558;2022-12-24T03:59:00;99530.31;;;0.61;97.92
7109;BME280;29079;41.930;25.558;2022-12-24T04:01:30;99535.38;;;0.65;97.35
7109;BME280;29079;41.930;25.558;2022-12-24T04:04:01;99524.00;;;0.65;97.58
7109;BME280;29079;41.930;25.558;2022-12-24T04:06:32;99537.00;;;0.68;97.92
7109;BME280;29079;41.930;25.558;2022-12-24T04:09:02;99527.28;;;0.70;97.26
7109;BME280;29079;41.930;25.558;2022-12-24T04:11:33;99536.56;;;0.77;97.12
7109;BME280;29079;41.930;25.558;2022-12-24T04:14:12;99522.16;;;0.67;97.26
7109;BME280;29079;41.930;25.558;2022-12-24T04:16:42;99532.03;;;0.62;97.04
7109;BME280;29079;41.930;25.558;2022-12-24T04:19:13;99520.78;;;0.41;97.45
7109;BME280;29079;41.930;25.558;2022-12-24T04:21:43;99505.16;;;0.38;98.26
7109;BME280;29079;41.930;25.558;2022-12-24T04:24:14;99516.81;;;0.51;98.15
7109;BME280;29079;41.930;25.558;2022-12-24T04:26:44;99519.50;;;0.49;97.13
7109;BME280;29079;41.930;25.558;2022-12-24T04:29:14;99519.34;;;0.52;97.44
7109;BME280;29079;41.930;25.558;2022-12-24T04:31:44;99524.59;;;0.52;97.88
7109;BME280;29079;41.930;25.558;2022-12-24T04:34:15;99511.53;;;0.51;97.27
7109;BME280;29079;41.930;25.558;2022-12-24T04:36:45;99513.22;;;0.52;96.83
7109;BME280;29079;41.930;25.558;2022-12-24T04:39:15;99509.72;;;0.34;97.75
7109;BME280;29079;41.930;25.558;2022-12-24T04:41:44;99515.19;;;0.29;97.60
7109;BME280;29079;41.930;25.558;2022-12-24T04:44:14;99528.09;;;0.34;98.24
7109;BME280;29079;41.930;25.558;2022-12-24T04:46:44;99511.53;;;0.32;98.18
7109;BME280;29079;41.930;25.558;2022-12-24T04:49:15;99530.78;;;0.32;98.05
7109;BME280;29079;41.930;25.558;2022-12-24T04:51:45;99525.69;;;0.29;98.40
7109;BME280;29079;41.930;25.558;2022-12-24T04:54:16;99520.97;;;0.36;98.12
7109;BME280;29079;41.930;25.558;2022-12-24T04:56:46;99528.38;;;0.28;98.26
7109;BME280;29079;41.930;25.558;2022-12-24T04:59:16;99529.59;;;0.40;97.75
7109;BME280;29079;41.930;25.558;2022-12-24T05:01:45;99522.97;;;0.31;97.15
7109;BME280;29079;41.930;25.558;2022-12-24T05:04:17;99529.72;;;0.37;97.74
7109;BME280;29079;41.930;25.558;2022-12-24T05:06:46;99524.88;;;0.46;97.25
7109;BME280;29079;41.930;25.558;2022-12-24T05:09:16;99523.41;;;0.41;96.45
7109;BME280;29079;41.930;25.558;2022-12-24T05:11:47;99523.34;;;0.42;96.82
7109;BME280;29079;41.930;25.558;2022-12-24T05:14:17;99524.97;;;0.26;96.79
7109;BME280;29079;41.930;25.558;2022-12-24T05:16:48;99526.81;;;0.24;97.98
7109;BME280;29079;41.930;25.558;2022-12-24T05:19:19;99510.69;;;0.31;97.03
7109;BME280;29079;41.930;25.558;2022-12-24T05:21:49;99516.47;;;0.21;97.12
7109;BME280;29079;41.930;25.558;2022-12-24T05:24:39;99523.31;;;0.23;97.17
7109;BME280;29079;41.930;25.558;2022-12-24T05:27:26;99534.63;;;0.06;97.47
7109;BME280;29079;41.930;25.558;2022-12-24T05:29:57;99533.03;;;0.02;97.79
7109;BME280;29079;41.930;25.558;2022-12-24T05:32:27;99541.53;;;0.07;98.35
7109;BME280;29079;41.930;25.558;2022-12-24T05:34:59;99542.88;;;-0.03;98.50
7109;BME280;29079;41.930;25.558;2022-12-24T05:37:29;99538.22;;;0.04;98.41
7109;BME280;29079;41.930;25.558;2022-12-24T05:39:59;99543.09;;;0.11;97.04
7109;BME280;29079;41.930;25.558;2022-12-24T05:42:28;99540.16;;;0.19;97.43
7109;BME280;29079;41.930;25.558;2022-12-24T05:44:59;99523.13;;;0.28;97.08
7109;BME280;29079;41.930;25.558;2022-12-24T05:47:29;99503.53;;;-0.03;98.09
7109;BME280;29079;41.930;25.558;2022-12-24T05:50:05;99509.34;;;0.04;97.04
7109;BME280;29079;41.930;25.558;2022-12-24T05:52:35;99535.75;;;0.20;96.95
7109;BME280;29079;41.930;25.558;2022-12-24T05:55:06;99541.56;;;0.26;97.00
7109;BME280;29079;41.930;25.558;2022-12-24T05:57:38;99547.34;;;-0.05;97.28
7109;BME280;29079;41.930;25.558;2022-12-24T06:00:09;99499.25;;;-0.25;97.77
7109;BME280;29079;41.930;25.558;2022-12-24T06:02:40;99548.22;;;0.14;96.80
7109;BME280;29079;41.930;25.558;2022-12-24T06:05:11;99551.94;;;0.10;97.41
7109;BME280;29079;41.930;25.558;2022-12-24T06:07:43;99561.94;;;0.21;96.23
7109;BME280;29079;41.930;25.558;2022-12-24T06:10:12;99565.69;;;0.15;96.18
7109;BME280;29079;41.930;25.558;2022-12-24T06:12:43;99574.34;;;0.17;95.69
7109;BME280;29079;41.930;25.558;2022-12-24T06:15:13;99580.28;;;0.02;96.27
7109;BME280;29079;41.930;25.558;2022-12-24T06:17:52;99588.78;;;0.07;96.27
7109;BME280;29079;41.930;25.558;2022-12-24T06:20:23;99580.91;;;0.07;96.03
7109;BME280;29079;41.930;25.558;2022-12-24T06:22:53;99578.25;;;0.09;95.98
7109;BME280;29079;41.930;25.558;2022-12-24T06:25:22;99575.63;;;0.28;95.83
7109;BME280;29079;41.930;25.558;2022-12-24T06:27:52;99581.09;;;0.42;95.43
7109;BME280;29079;41.930;25.558;2022-12-24T06:30:22;99582.78;;;0.24;96.04
7109;BME280;29079;41.930;25.558;2022-12-24T06:32:52;99579.75;;;-0.06;95.95
7109;BME280;29079;41.930;25.558;2022-12-24T06:35:24;99576.03;;;0.19;95.94
7109;BME280;29079;41.930;25.558;2022-12-24T06:37:54;99571.97;;;0.11;96.63
7109;BME280;29079;41.930;25.558;2022-12-24T06:40:24;99547.78;;;-0.14;97.17
7109;BME280;29079;41.930;25.558;2022-12-24T06:42:57;99577.88;;;0.16;96.68
7109;BME280;29079;41.930;25.558;2022-12-24T06:45:27;99581.94;;;0.24;97.15
7109;BME280;29079;41.930;25.558;2022-12-24T06:47:57;99571.66;;;0.19;96.48
7109;BME280;29079;41.930;25.558;2022-12-24T06:50:28;99587.66;;;0.32;96.55
7109;BME280;29079;41.930;25.558;2022-12-24T06:52:58;99587.47;;;0.37;96.06
7109;BME280;29079;41.930;25.558;2022-12-24T06:55:28;99591.09;;;0.34;96.51
7109;BME280;29079;41.930;25.558;2022-12-24T06:57:59;99581.88;;;0.44;96.10
7109;BME280;29079;41.930;25.558;2022-12-24T07:00:30;99579.47;;;0.59;96.22
7109;BME280;29079;41.930;25.558;2022-12-24T07:03:00;99583.22;;;0.53;96.24
7109;BME280;29079;41.930;25.558;2022-12-24T07:05:31;99581.78;;;0.65;95.63
7109;BME280;29079;41.930;25.558;2022-12-24T07:08:01;99591.00;;;0.74;95.34
7109;BME280;29079;41.930;25.558;2022-12-24T07:10:31;99585.47;;;0.80;96.12
7109;BME280;29079;41.930;25.558;2022-12-24T07:13:01;99586.19;;;0.83;95.54
7109;BME280;29079;41.930;25.558;2022-12-24T07:15:31;99583.97;;;0.93;95.67
7109;BME280;29079;41.930;25.558;2022-12-24T07:18:01;99578.19;;;1.04;95.27
7109;BME280;29079;41.930;25.558;2022-12-24T07:20:32;99573.63;;;1.08;95.57
7109;BME280;29079;41.930;25.558;2022-12-24T07:23:02;99573.25;;;1.15;95.77
7109;BME280;29079;41.930;25.558;2022-12-24T07:25:33;99577.50;;;1.18;95.45
7109;BME280;29079;41.930;25.558;2022-12-24T07:28:03;99574.66;;;1.23;95.69
7109;BME280;29079;41.930;25.558;2022-12-24T07:30:33;99573.25;;;1.33;95.43
7109;BME280;29079;41.930;25.558;2022-12-24T07:33:03;99573.75;;;1.41;95.52
7109;BME280;29079;41.930;25.558;2022-12-24T07:35:34;99569.25;;;1.43;94.92
7109;BME280;29079;41.930;25.558;2022-12-24T07:38:04;99586.25;;;1.53;95.17
7109;BME280;29079;41.930;25.558;2022-12-24T07:40:34;99572.78;;;1.60;94.85
7109;BME280;29079;41.930;25.558;2022-12-24T07:43:04;99546.34;;;1.63;94.35
7109;BME280;29079;41.930;25.558;2022-12-24T07:45:34;99571.59;;;1.83;94.27
7109;BME280;29079;41.930;25.558;2022-12-24T07:48:04;99566.97;;;1.88;94.60
7109;BME280;29079;41.930;25.558;2022-12-24T07:50:36;99557.50;;;2.01;94.46
7109;BME280;29079;41.930;25.558;2022-12-24T07:53:07;99565.66;;;2.13;94.00
7109;BME280;29079;41.930;25.558;2022-12-24T07:55:37;99562.63;;;2.20;93.38
7109;BME280;29079;41.930;25.558;2022-12-24T07:58:07;99560.25;;;2.32;93.74
7109;BME280;29079;41.930;25.558;2022-12-24T08:00:37;99559.66;;;2.42;93.12
7109;BME280;29079;41.930;25.558;2022-12-24T08:03:09;99560.63;;;2.57;94.06
7109;BME280;29079;41.930;25.558;2022-12-24T08:05:46;99570.63;;;2.83;93.34
7109;BME280;29079;41.930;25.558;2022-12-24T08:08:16;99566.47;;;2.94;93.72
7109;BME280;29079;41.930;25.558;2022-12-24T08:10:47;99559.72;;;3.05;93.15
7109;BME280;29079;41.930;25.558;2022-12-24T08:13:17;99573.28;;;3.29;93.06
7109;BME280;29079;41.930;25.558;2022-12-24T08:15:48;99574.38;;;3.41;92.60
7109;BME280;29079;41.930;25.558;2022-12-24T08:18:18;99574.13;;;3.60;92.52
7109;BME280;29079;41.930;25.558;2022-12-24T08:20:49;99575.38;;;3.69;92.28
7109;BME280;29079;41.930;25.558;2022-12-24T08:23:21;99576.06;;;3.72;92.05
7109;BME280;29079;41.930;25.558;2022-12-24T08:25:51;99585.66;;;3.88;92.14
7109;BME280;29079;41.930;25.558;2022-12-24T08:28:21;99590.41;;;3.97;91.52
7109;BME280;29079;41.930;25.558;2022-12-24T08:30:51;99576.94;;;4.01;91.27
7109;BME280;29079;41.930;25.558;2022-12-24T08:33:21;99579.78;;;4.13;91.50
7109;BME280;29079;41.930;25.558;2022-12-24T08:35:54;99578.34;;;4.22;91.04
7109;BME280;29079;41.930;25.558;2022-12-24T08:38:24;99576.66;;;4.35;91.15
7109;BME280;29079;41.930;25.558;2022-12-24T08:40:54;99525.13;;;4.13;90.49
7109;BME280;29079;41.930;25.558;2022-12-24T08:43:24;99570.13;;;4.55;90.76
7109;BME280;29079;41.930;25.558;2022-12-24T08:45:54;99533.22;;;4.39;90.37
7109;BME280;29079;41.930;25.558;2022-12-24T08:48:24;99581.00;;;4.78;89.81
7109;BME280;29079;41.930;25.558;2022-12-24T08:50:56;99576.84;;;4.88;90.01
7109;BME280;29079;41.930;25.558;2022-12-24T08:53:26;99568.84;;;5.02;89.37
7109;BME280;29079;41.930;25.558;2022-12-24T08:56:00;99575.16;;;5.14;89.41
7109;BME280;29079;41.930;25.558;2022-12-24T08:58:30;99550.88;;;5.08;88.61
7109;BME280;29079;41.930;25.558;2022-12-24T09:01:08;99574.00;;;5.31;88.75
7109;BME280;29079;41.930;25.558;2022-12-24T09:03:39;99567.16;;;5.41;88.68
7109;BME280;29079;41.930;25.558;2022-12-24T09:06:13;99552.25;;;5.40;87.58
7109;BME280;29079;41.930;25.558;2022-12-24T09:08:43;99552.25;;;5.40;87.14
7109;BME280;29079;41.930;25.558;2022-12-24T09:11:15;99552.38;;;5.52;87.18
7109;BME280;29079;41.930;25.558;2022-12-24T09:13:45;99537.09;;;5.43;87.19
7109;BME280;29079;41.930;25.558;2022-12-24T09:16:16;99553.97;;;5.67;86.66
7109;BME280;29079;41.930;25.558;2022-12-24T09:18:46;99533.22;;;5.61;86.15
7109;BME280;29079;41.930;25.558;2022-12-24T09:21:17;99545.41;;;5.77;86.56
7109;BME280;29079;41.930;25.558;2022-12-24T09:23:48;99543.06;;;5.85;85.91
7109;BME280;29079;41.930;25.558;2022-12-24T09:26:19;99538.94;;;5.93;86.12
7109;BME280;29079;41.930;25.558;2022-12-24T09:28:50;99539.41;;;6.00;84.78
7109;BME280;29079;41.930;25.558;2022-12-24T09:31:20;99536.97;;;6.10;84.86
7109;BME280;29079;41.930;25.558;2022-12-24T09:33:51;99536.63;;;6.15;85.08
7109;BME280;29079;41.930;25.558;2022-12-24T09:36:22;99534.28;;;6.23;84.16
7109;BME280;29079;41.930;25.558;2022-12-24T09:38:52;99542.31;;;6.34;83.53
7109;BME280;29079;41.930;25.558;2022-12-24T09:41:32;99534.47;;;6.33;84.14
7109;BME280;29079;41.930;25.558;2022-12-24T09:44:18;99540.19;;;6.39;84.19
7109;BME280;29079;41.930;25.558;2022-12-24T09:46:50;99540.84;;;6.30;84.13
7109;BME280;29079;41.930;25.558;2022-12-24T09:49:33;99533.22;;;6.25;84.51
7109;BME280;29079;41.930;25.558;2022-12-24T09:52:09;99534.72;;;6.17;84.15
7109;BME280;29079;41.930;25.558;2022-12-24T09:54:43;99536.00;;;6.11;85.04
7109;BME280;29079;41.930;25.558;2022-12-24T09:57:23;99531.84;;;6.20;85.25
7109;BME280;29079;41.930;25.558;2022-12-24T09:59:54;99528.56;;;6.16;85.84
7109;BME280;29079;41.930;25.558;2022-12-24T10:02:24;99533.00;;;6.16;85.83
7109;BME280;29079;41.930;25.558;2022-12-24T10:04:55;99524.97;;;6.17;85.13
7109;BME280;29079;41.930;25.558;2022-12-24T10:07:33;99517.75;;;6.19;85.50
7109;BME280;29079;41.930;25.558;2022-12-24T10:10:15;99525.38;;;6.24;84.89
7109;BME280;29079;41.930;25.558;2022-12-24T10:12:55;99503.13;;;6.14;85.42
7109;BME280;29079;41.930;25.558;2022-12-24T10:15:33;99519.75;;;6.28;85.62
7109;BME280;29079;41.930;25.558;2022-12-24T10:18:16;99522.91;;;6.47;84.48
7109;BME280;29079;41.930;25.558;2022-12-24T10:20:55;99515.38;;;6.77;82.71
7109;BME280;29079;41.930;25.558;2022-12-24T10:23:32;99519.78;;;6.90;81.03
7109;BME280;29079;41.930;25.558;2022-12-24T10:26:12;99517.78;;;7.05;80.63
7109;BME280;29079;41.930;25.558;2022-12-24T10:28:47;99515.50;;;7.11;80.17
7109;BME280;29079;41.930;25.558;2022-12-24T10:31:19;99510.84;;;7.15;80.42
7109;BME280;29079;41.930;25.558;2022-12-24T10:33:55;99507.13;;;7.18;80.24
7109;BME280;29079;41.930;25.558;2022-12-24T10:36:28;99505.63;;;7.13;79.57
7109;BME280;29079;41.930;25.558;2022-12-24T10:39:00;99496.94;;;7.11;79.26
7109;BME280;29079;41.930;25.558;2022-12-24T10:41:34;99510.00;;;7.26;79.93
7109;BME280;29079;41.930;25.558;2022-12-24T10:44:04;99510.41;;;7.32;79.19
7109;BME280;29079;41.930;25.558;2022-12-24T10:46:37;99507.16;;;7.40;78.56
7109;BME280;29079;41.930;25.558;2022-12-24T10:49:13;99511.78;;;7.49;77.91
7109;BME280;29079;41.930;25.558;2022-12-24T10:51:46;99495.06;;;7.25;78.67
7109;BME280;29079;41.930;25.558;2022-12-24T10:54:22;99503.50;;;7.30;78.71
7109;BME280;29079;41.930;25.558;2022-12-24T10:56:57;99507.88;;;7.31;78.83
7109;BME280;29079;41.930;25.558;2022-12-24T10:59:30;99509.91;;;7.27;79.06
7109;BME280;29079;41.930;25.558;2022-12-24T11:02:00;99500.91;;;7.41;78.00
7109;BME280;29079;41.930;25.558;2022-12-24T11:04:32;99501.28;;;7.48;78.45
7109;BME280;29079;41.930;25.558;2022-12-24T11:07:18;99479.69;;;7.53;77.74
7109;BME280;29079;41.930;25.558;2022-12-24T11:09:56;99495.63;;;7.75;76.57
7109;BME280;29079;41.930;25.558;2022-12-24T11:12:29;99495.53;;;7.77;77.04
7109;BME280;29079;41.930;25.558;2022-12-24T11:15:03;99492.41;;;7.83;75.60
7109;BME280;29079;41.930;25.558;2022-12-24T11:17:34;99488.06;;;7.93;75.81
7109;BME280;29079;41.930;25.558;2022-12-24T11:20:05;99461.38;;;7.95;73.60
7109;BME280;29079;41.930;25.558;2022-12-24T11:22:36;99485.88;;;8.21;73.69
7109;BME280;29079;41.930;25.558;2022-12-24T11:25:23;99482.59;;;8.17;74.56
7109;BME280;29079;41.930;25.558;2022-12-24T11:27:55;99471.63;;;7.88;75.07
7109;BME280;29079;41.930;25.558;2022-12-24T11:30:29;99481.03;;;7.81;76.12
7109;BME280;29079;41.930;25.558;2022-12-24T11:33:20;99485.16;;;7.85;76.72
7109;BME280;29079;41.930;25.558;2022-12-24T11:36:09;99484.56;;;7.81;76.47
7109;BME280;29079;41.930;25.558;2022-12-24T11:38:41;99480.66;;;7.85;75.86
7109;BME280;29079;41.930;25.558;2022-12-24T11:41:14;99476.34;;;7.84;75.16
7109;BME280;29079;41.930;25.558;2022-12-24T11:43:46;99481.66;;;7.84;75.64
7109;BME280;29079;41.930;25.558;2022-12-24T11:46:34;99474.38;;;7.75;75.39
7109;BME280;29079;41.930;25.558;2022-12-24T11:49:14;99473.31;;;7.78;76.53
7109;BME280;29079;41.930;25.558;2022-12-24T11:52:09;99421.84;;;7.45;76.92
7109;BME280;29079;41.930;25.558;2022-12-24T11:54:50;99465.59;;;7.86;76.67
7109;BME280;29079;41.930;25.558;2022-12-24T11:57:27;99471.63;;;7.88;76.88
7109;BME280;29079;41.930;25.558;2022-12-24T12:00:09;99469.34;;;7.95;75.64
7109;BME280;29079;41.930;25.558;2022-12-24T12:02:42;99479.69;;;8.32;73.11
7109;BME280;29079;41.930;25.558;2022-12-24T12:05:16;99450.56;;;8.19;72.77
7109;BME280;29079;41.930;25.558;2022-12-24T12:07:50;99471.00;;;8.30;72.61
7109;BME280;29079;41.930;25.558;2022-12-24T12:10:24;99473.03;;;8.49;71.88
7109;BME280;29079;41.930;25.558;2022-12-24T12:12:59;99470.00;;;8.42;71.84
7109;BME280;29079;41.930;25.558;2022-12-24T12:15:36;99459.75;;;8.49;71.46
7109;BME280;29079;41.930;25.558;2022-12-24T12:18:12;99463.25;;;8.49;71.67
7109;BME280;29079;41.930;25.558;2022-12-24T12:20:45;99460.00;;;8.46;71.89
7109;BME280;29079;41.930;25.558;2022-12-24T12:23:20;99468.75;;;8.69;71.02
7109;BME280;29079;41.930;25.558;2022-12-24T12:25:54;99469.44;;;8.82;70.90
7109;BME280;29079;41.930;25.558;2022-12-24T12:28:33;99456.63;;;8.87;70.94
7109;BME280;29079;41.930;25.558;2022-12-24T12:31:11;99463.91;;;8.74;71.80
7109;BME280;29079;41.930;25.558;2022-12-24T12:33:47;99453.19;;;8.64;73.38
7109;BME280;29079;41.930;25.558;2022-12-24T12:36:24;99451.63;;;8.62;74.03
7109;BME280;29079;41.930;25.558;2022-12-24T12:38:55;99461.06;;;8.54;73.78
7109;BME280;29079;41.930;25.558;2022-12-24T12:41:34;99447.53;;;8.46;74.61
7109;BME280;29079;41.930;25.558;2022-12-24T12:44:29;99456.00;;;8.40;75.84
7109;BME280;29079;41.930;25.558;2022-12-24T12:47:19;99451.69;;;8.28;76.27
7109;BME280;29079;41.930;25.558;2022-12-24T12:50:02;99464.34;;;8.24;77.05
7109;BME280;29079;41.930;25.558;2022-12-24T12:52:48;99463.53;;;8.12;77.85
7109;BME280;29079;41.930;25.558;2022-12-24T12:55:32;99454.94;;;8.20;77.51
7109;BME280;29079;41.930;25.558;2022-12-24T12:58:11;99455.66;;;8.22;77.60
7109;BME280;29079;41.930;25.558;2022-12-24T13:00:49;99449.03;;;8.16;78.27
7109;BME280;29079;41.930;25.558;2022-12-24T13:03:40;99454.72;;;8.12;78.23
7109;BME280;29079;41.930;25.558;2022-12-24T13:06:32;99417.03;;;7.84;78.81
7109;BME280;29079;41.930;25.558;2022-12-24T13:09:49;99440.94;;;8.07;79.70
7109;BME280;29079;41.930;25.558;2022-12-24T13:12:38;99437.91;;;8.00;79.18
7109;BME280;29079;41.930;25.558;2022-12-24T13:15:37;99447.13;;;7.96;79.13
7109;BME280;29079;41.930;25.558;2022-12-24T13:21:31;99430.34;;;7.73;79.66
7109;BME280;29079;41.930;25.558;2022-12-24T13:24:06;99450.72;;;7.72;79.52
7109;BME280;29079;41.930;25.558;2022-12-24T13:26:59;99461.59;;;7.69;79.56
7109;BME280;29079;41.930;25.558;2022-12-24T13:29:39;99451.91;;;7.68;80.23
7109;BME280;29079;41.930;25.558;2022-12-24T13:35:57;99443.25;;;7.77;80.61
7109;BME280;29079;41.930;25.558;2022-12-24T13:38:40;99444.56;;;7.72;80.86
7109;BME280;29079;41.930;25.558;2022-12-24T13:41:36;99449.75;;;7.73;80.66
7109;BME280;29079;41.930;25.558;2022-12-24T13:44:17;99439.75;;;7.65;81.29
7109;BME280;29079;41.930;25.558;2022-12-24T13:46:50;99458.81;;;7.71;81.46
7109;BME280;29079;41.930;25.558;2022-12-24T13:49:42;99457.47;;;7.65;81.65
7109;BME280;29079;41.930;25.558;2022-12-24T13:52:16;99467.50;;;7.61;82.37